Iriana — WDG2606 — position and weather

sailwx.info

Track history (hours):
 
Tides and Currents Weather Stations Pressure Air Temp Water Temp Dewpoint Dewpoint Depression Visibility Wind Speed Wind Dir Waves Ship Positions

Iriana

Owner: Bruce, Roger M, Green Cove Springs, FL. More information available from US FCC via Universal Licensing System and Coast Guard Vessel Documentation Center.

Last reported at 2017-May-18 16:30 UTC. Time now 2017-Sep-26 21:54 UTC.
Position N 17°08' W 061°45'.
Warning: this ship's position is months out of date.

Length 16 m; draft 2 m.

Type: Pleasure craft. MMSI: 367517330.

Date/timePositionNaut miles runAvg speedWind from/ knotsBaromVisibWave heightAir tempDewpointWater temp
2017-May-18 16:30N 17°08' W 061°45'1 2.7
2017-May-18 16:00N 17°09' W 061°46'3 6.0
2017-May-18 15:30N 17°11' W 061°48'3 6.2
2017-May-18 15:00N 17°10' W 061°52'2 4.8
2017-May-18 14:30N 17°09' W 061°53'1 0.1
2017-May-17 16:53N 17°08' W 061°53'0 1.2
2017-May-17 16:30N 17°08' W 061°54'3 5.5
2017-May-17 16:00N 17°05' W 061°55'4 6.3
2017-May-17 15:22N 17°01' W 061°54'3 7.0
2017-May-17 15:00N 17°01' W 061°51'4 4.4
2017-May-17 14:00N 17°01' W 061°47'0 0.0
2017-May-17 13:30N 17°01' W 061°47'0 0.4
2017-May-17 13:00N 17°01' W 061°46'0 0.0
2017-May-16 15:22N 17°01' W 061°46'0 0.0
2017-May-16 15:01N 17°01' W 061°46'  
2017-May-12 19:34N 17°01' W 061°46'0 0.0
2017-May-12 19:30N 17°01' W 061°46'0 0.0
2017-May-12 19:00N 17°01' W 061°46'0 0.0
2017-May-12 18:30N 17°01' W 061°46'2 3.4
2017-May-12 18:00N 16°60' W 061°48'3 6.6
2017-May-12 17:30N 16°59' W 061°51'3 6.3
2017-May-12 17:00N 16°57' W 061°54'3 6.2
2017-May-12 16:30N 16°56' W 061°57'3 6.3
2017-May-12 16:00N 16°54' W 061°60'3 5.0
2017-May-12 15:30N 16°54' W 062°02'3 6.1
2017-May-12 15:00N 16°52' W 062°05'3 6.5
2017-May-12 14:30N 16°51' W 062°08'5 0.1
2017-May-10 17:35N 16°48' W 062°13'0 1.0
2017-May-10 17:27N 16°48' W 062°13'2 4.5
2017-May-10 17:00N 16°50' W 062°12'4 7.2
2017-May-10 16:30N 16°51' W 062°09'3 6.9
2017-May-10 16:00N 16°52' W 062°05'4 7.2
2017-May-10 15:30N 16°54' W 062°02'4 7.1
2017-May-10 15:00N 16°55' W 061°58'7 7.0
2017-May-10 14:00N 16°57' W 061°51'3 6.8
2017-May-10 13:30N 16°59' W 061°48'3 5.3
2017-May-10 13:00N 17°01' W 061°47'0 0.0
2017-May-08 16:30N 17°01' W 061°47'  
Track history (hours):
 
Tides and Currents Weather Stations Pressure Air Temp Water Temp Dewpoint Dewpoint Depression Visibility Wind Speed Wind Dir Waves Ship Positions

Iriana

Owner: Bruce, Roger M, Green Cove Springs, FL. More information available from US FCC via Universal Licensing System and Coast Guard Vessel Documentation Center.

Last reported at 2017-May-18 16:30 UTC. Time now 2017-Sep-26 21:54 UTC.
Position N 17°08' W 061°45'.
Warning: this ship's position is months out of date.

Length 16 m; draft 2 m.

Type: Pleasure craft. MMSI: 367517330.

Date/timePositionNaut miles runAvg speedWind from/ knotsBaromVisibWave heightAir tempDewpointWater temp
2017-May-18 16:30N 17°08' W 061°45'1 2.7
2017-May-18 16:00N 17°09' W 061°46'3 6.0
2017-May-18 15:30N 17°11' W 061°48'3 6.2
2017-May-18 15:00N 17°10' W 061°52'2 4.8
2017-May-18 14:30N 17°09' W 061°53'1 0.1
2017-May-17 16:53N 17°08' W 061°53'0 1.2
2017-May-17 16:30N 17°08' W 061°54'3 5.5
2017-May-17 16:00N 17°05' W 061°55'4 6.3
2017-May-17 15:22N 17°01' W 061°54'3 7.0
2017-May-17 15:00N 17°01' W 061°51'4 4.4
2017-May-17 14:00N 17°01' W 061°47'0 0.0
2017-May-17 13:30N 17°01' W 061°47'0 0.4
2017-May-17 13:00N 17°01' W 061°46'0 0.0
2017-May-16 15:22N 17°01' W 061°46'0 0.0
2017-May-16 15:01N 17°01' W 061°46'  
2017-May-12 19:34N 17°01' W 061°46'0 0.0
2017-May-12 19:30N 17°01' W 061°46'0 0.0
2017-May-12 19:00N 17°01' W 061°46'0 0.0
2017-May-12 18:30N 17°01' W 061°46'2 3.4
2017-May-12 18:00N 16°60' W 061°48'3 6.6
2017-May-12 17:30N 16°59' W 061°51'3 6.3
2017-May-12 17:00N 16°57' W 061°54'3 6.2
2017-May-12 16:30N 16°56' W 061°57'3 6.3
2017-May-12 16:00N 16°54' W 061°60'3 5.0
2017-May-12 15:30N 16°54' W 062°02'3 6.1
2017-May-12 15:00N 16°52' W 062°05'3 6.5
2017-May-12 14:30N 16°51' W 062°08'5 0.1
2017-May-10 17:35N 16°48' W 062°13'0 1.0
2017-May-10 17:27N 16°48' W 062°13'2 4.5
2017-May-10 17:00N 16°50' W 062°12'4 7.2
2017-May-10 16:30N 16°51' W 062°09'3 6.9
2017-May-10 16:00N 16°52' W 062°05'4 7.2
2017-May-10 15:30N 16°54' W 062°02'4 7.1
2017-May-10 15:00N 16°55' W 061°58'7 7.0
2017-May-10 14:00N 16°57' W 061°51'3 6.8
2017-May-10 13:30N 16°59' W 061°48'3 5.3
2017-May-10 13:00N 17°01' W 061°47'0 0.0
2017-May-08 16:30N 17°01' W 061°47'  

Dump ship's entire track history